createdAt,value
2018-09-14T00:00:52.692Z,93.90
2018-09-14T00:06:02.414Z,94.00
2018-09-14T00:11:12.244Z,94.20
2018-09-14T00:16:21.908Z,94.50
2018-09-14T00:21:31.865Z,93.90
2018-09-14T00:26:41.694Z,94.00
2018-09-14T00:31:51.580Z,94.00
2018-09-14T00:37:01.497Z,93.80
2018-09-14T00:42:11.388Z,94.80
2018-09-14T00:47:21.090Z,95.10
2018-09-14T00:52:30.842Z,94.10
2018-09-14T00:57:47.039Z,94.40
2018-09-14T01:02:56.939Z,93.80
2018-09-14T01:08:06.790Z,94.20
2018-09-14T01:13:16.580Z,93.70
2018-09-14T01:18:27.420Z,94.00
2018-09-14T01:23:37.353Z,93.70
2018-09-14T01:28:47.160Z,93.70
2018-09-14T01:33:57.008Z,94.00
2018-09-14T01:39:09.498Z,94.30
2018-09-14T01:44:19.290Z,94.00
2018-09-14T01:49:29.024Z,94.50
2018-09-14T01:54:38.815Z,94.80
2018-09-14T01:59:48.652Z,94.40
2018-09-14T02:04:58.692Z,94.40
2018-09-14T02:10:08.470Z,94.30
2018-09-14T02:15:18.272Z,94.10
2018-09-14T02:20:27.985Z,94.00
2018-09-14T02:25:38.086Z,94.40
2018-09-14T02:30:47.799Z,94.00
2018-09-14T02:35:57.724Z,94.30
2018-09-14T02:41:07.479Z,94.30
2018-09-14T02:46:17.278Z,94.60
2018-09-14T02:51:27.147Z,94.60
2018-09-14T02:56:36.972Z,93.80
2018-09-14T03:01:46.775Z,94.20
2018-09-14T03:06:56.528Z,94.90
2018-09-14T03:12:06.227Z,95.00
2018-09-14T03:17:16.131Z,95.70
2018-09-14T03:22:25.873Z,94.30
2018-09-14T03:27:35.595Z,94.50
2018-09-14T03:32:45.297Z,94.10
2018-09-14T03:37:55.197Z,94.60
2018-09-14T03:43:05.035Z,94.70
2018-09-14T03:48:14.759Z,95.00
2018-09-14T03:53:24.580Z,94.70
2018-09-14T03:58:34.332Z,96.60
2018-09-14T04:03:44.198Z,97.60
2018-09-14T04:08:54.089Z,97.50
2018-09-14T04:14:03.778Z,96.60
2018-09-14T04:19:13.468Z,97.20
2018-09-14T04:24:23.964Z,97.30
2018-09-14T04:29:33.892Z,97.10
2018-09-14T04:34:43.765Z,96.40
2018-09-14T04:39:53.625Z,96.30
2018-09-14T04:45:03.469Z,96.60
2018-09-14T04:50:13.212Z,97.30
2018-09-14T04:55:22.829Z,97.20
2018-09-14T05:00:32.664Z,96.90
2018-09-14T05:05:42.403Z,96.00
2018-09-14T05:10:52.179Z,96.80
2018-09-14T05:16:01.963Z,95.20
2018-09-14T05:21:11.660Z,95.50
2018-09-14T05:26:21.421Z,95.80
2018-09-14T05:31:31.408Z,95.30
2018-09-14T05:36:41.213Z,95.40
2018-09-14T05:41:51.002Z,95.40
2018-09-14T05:47:00.867Z,95.80
2018-09-14T05:52:10.613Z,96.00
2018-09-14T05:57:20.504Z,96.70
2018-09-14T06:02:30.279Z,94.80
2018-09-14T06:07:40.217Z,94.50
2018-09-14T06:12:50.038Z,95.00
2018-09-14T06:18:00.747Z,94.50
2018-09-14T06:23:11.463Z,94.90
2018-09-14T06:28:21.314Z,96.00
2018-09-14T06:33:31.385Z,94.80
2018-09-14T06:38:41.161Z,94.90
2018-09-14T06:43:50.977Z,95.20
2018-09-14T06:49:00.700Z,96.20
2018-09-14T06:54:10.621Z,96.30
2018-09-14T06:59:20.349Z,95.30
2018-09-14T07:04:30.043Z,95.60
2018-09-14T07:09:39.787Z,95.90
2018-09-14T07:14:50.216Z,96.00
2018-09-14T07:19:59.903Z,96.10
2018-09-14T07:25:09.856Z,96.70
2018-09-14T07:30:19.659Z,95.70
2018-09-14T07:40:39.306Z,96.40
2018-09-14T07:45:49.517Z,97.40
2018-09-14T07:50:59.346Z,96.30
2018-09-14T07:56:09.038Z,97.00
2018-09-14T08:01:18.957Z,96.70
2018-09-14T08:06:28.940Z,96.90
2018-09-14T08:11:38.800Z,96.20
2018-09-14T08:16:48.517Z,96.40
2018-09-14T08:21:58.511Z,96.20
2018-09-14T08:27:08.436Z,96.90
2018-09-14T08:32:18.411Z,96.60
2018-09-14T08:37:28.424Z,95.60
2018-09-14T08:42:38.216Z,95.50
2018-09-14T08:47:48.124Z,95.60
2018-09-14T08:52:57.985Z,96.30
2018-09-14T08:58:07.900Z,95.00
2018-09-14T09:03:17.874Z,94.10
2018-09-14T09:08:27.619Z,93.30
2018-09-14T09:13:37.537Z,94.00
2018-09-14T09:18:47.469Z,93.70
2018-09-14T09:23:57.398Z,93.00
2018-09-14T09:29:07.307Z,91.70
2018-09-14T09:34:17.841Z,91.90
2018-09-14T09:39:27.627Z,91.00
2018-09-14T09:44:37.602Z,90.70
2018-09-14T09:49:47.638Z,91.20
2018-09-14T09:54:57.537Z,90.10
2018-09-14T10:00:11.733Z,91.00
2018-09-14T10:05:27.157Z,89.20
2018-09-14T10:10:37.836Z,82.70
2018-09-14T10:15:47.693Z,83.00
2018-09-14T10:20:57.583Z,83.20
2018-09-14T10:26:07.331Z,83.40
2018-09-14T10:31:17.182Z,73.50
2018-09-14T10:36:27.099Z,76.30
2018-09-14T10:41:36.996Z,80.50
2018-09-14T10:46:46.848Z,76.40
2018-09-14T10:51:56.613Z,77.40
2018-09-14T10:57:06.382Z,76.60
2018-09-14T11:02:16.330Z,82.80
2018-09-14T11:07:26.337Z,75.20
2018-09-14T11:12:36.145Z,72.20
2018-09-14T11:17:46.442Z,72.50
2018-09-14T11:22:56.141Z,75.40
2018-09-14T11:28:06.065Z,77.60
2018-09-14T11:33:15.963Z,73.10
2018-09-14T11:38:25.879Z,72.60
2018-09-14T11:43:35.655Z,73.70
2018-09-14T11:48:45.729Z,76.20
2018-09-14T11:53:55.635Z,73.70
2018-09-14T11:59:06.510Z,74.30
2018-09-14T12:04:16.598Z,73.30
2018-09-14T12:09:26.524Z,72.40
2018-09-14T12:14:36.615Z,73.30
2018-09-14T12:19:46.412Z,72.70
2018-09-14T12:24:56.127Z,72.60
2018-09-14T12:30:05.940Z,67.90
2018-09-14T12:35:15.973Z,71.50
2018-09-14T12:40:25.980Z,67.00
2018-09-14T12:45:35.970Z,67.70
2018-09-14T12:50:45.858Z,68.10
2018-09-14T12:55:55.923Z,65.80
2018-09-14T13:01:05.830Z,73.00
2018-09-14T13:06:15.903Z,66.10
2018-09-14T13:11:25.731Z,63.60
2018-09-14T13:16:35.764Z,66.80
2018-09-14T13:21:46.342Z,66.40
2018-09-14T13:26:56.227Z,66.60
2018-09-14T13:32:06.357Z,66.70
2018-09-14T13:37:16.080Z,69.30
2018-09-14T13:42:25.954Z,67.70
2018-09-14T13:47:35.951Z,61.00
2018-09-14T13:52:45.761Z,63.80
2018-09-14T13:57:55.643Z,64.40
2018-09-14T14:03:05.931Z,67.30
2018-09-14T14:08:26.612Z,65.30
2018-09-14T14:13:37.030Z,66.20
2018-09-14T14:18:47.256Z,64.30
2018-09-14T14:23:57.636Z,64.20
2018-09-14T14:29:07.471Z,65.80
2018-09-14T14:34:19.438Z,69.80
2018-09-14T14:39:29.302Z,69.80
2018-09-14T14:44:39.202Z,66.50
2018-09-14T14:49:49.078Z,67.00
2018-09-14T14:54:59.047Z,67.00
2018-09-14T15:00:08.836Z,68.50
2018-09-14T15:05:18.664Z,68.40
2018-09-14T15:10:28.531Z,68.60
2018-09-14T15:15:38.474Z,67.40
2018-09-14T15:20:48.444Z,69.50
2018-09-14T15:25:58.296Z,68.10
2018-09-14T15:31:08.167Z,67.70
2018-09-14T15:36:18.240Z,68.60
2018-09-14T15:41:28.103Z,70.10
2018-09-14T15:46:37.948Z,68.80
2018-09-14T15:51:47.796Z,69.80
2018-09-14T15:56:57.667Z,71.40
2018-09-14T16:02:07.663Z,71.30
2018-09-14T16:07:17.512Z,71.30
2018-09-14T16:12:27.262Z,71.00
2018-09-14T16:17:36.994Z,72.00
2018-09-14T16:22:46.742Z,72.50
2018-09-14T16:27:56.686Z,71.80
2018-09-14T16:33:07.330Z,73.30
2018-09-14T16:38:17.315Z,73.10
2018-09-14T16:43:27.117Z,72.50
2018-09-14T16:48:37.059Z,72.70
2018-09-14T16:53:46.776Z,73.20
2018-09-14T16:58:56.706Z,73.90
2018-09-14T17:04:06.595Z,74.40
2018-09-14T17:09:16.551Z,75.30
2018-09-14T17:14:26.473Z,75.10
2018-09-14T17:19:36.303Z,76.10
2018-09-14T17:24:46.092Z,75.70
2018-09-14T17:29:55.980Z,76.20
2018-09-14T17:35:05.735Z,77.20
2018-09-14T17:40:16.113Z,76.90
2018-09-14T17:45:25.830Z,76.80
2018-09-14T17:50:35.847Z,77.90
2018-09-14T17:55:45.805Z,77.80
2018-09-14T18:00:55.835Z,78.50
2018-09-14T18:11:31.436Z,78.50
2018-09-14T18:16:41.626Z,78.40
2018-09-14T18:21:52.055Z,79.20
2018-09-14T18:27:01.938Z,79.50
2018-09-14T18:32:13.335Z,80.20
2018-09-14T18:37:24.359Z,80.80
2018-09-14T18:42:38.259Z,80.70
2018-09-14T18:47:51.862Z,80.70
2018-09-14T18:53:03.966Z,80.90
2018-09-14T18:58:15.603Z,81.70
2018-09-14T19:03:28.134Z,81.80
2018-09-14T19:08:41.646Z,82.00
2018-09-14T19:13:52.316Z,82.80
2018-09-14T19:19:10.198Z,83.70
2018-09-14T19:24:21.746Z,83.60
2018-09-14T23:20:48.901Z,86.50
2018-09-14T23:26:00.890Z,87.40
2018-09-14T23:31:10.675Z,88.20
2018-09-14T23:36:20.392Z,89.30
2018-09-14T23:41:30.190Z,89.50
2018-09-14T23:46:40.120Z,89.60
2018-09-14T23:51:50.252Z,89.30
2018-09-14T23:57:00.409Z,88.40
